Time;durP1;ratioP1;P1;durP2;ratioP2;P2;SDS_P1;SDS_P2;PMS_P1;PMS_P2;Temp;Humidity;BMP_temperature;BMP_pressure;BME280_temperature;BME280_humidity;BME280_pressure;Samples;Min_cycle;Max_cycle;Signal;HPM_P1;HPM_P2
2020/12/04 00:01:40;;;;;;;17.48;8.93;;;;;;;4.67;97.38;97998.41;5019370;28;20037;-70
2020/12/04 00:04:06;;;;;;;16.02;9.55;;;;;;;4.60;97.69;97997.22;5025350;28;20061;-70
2020/12/04 00:06:34;;;;;;;17.63;8.32;;;;;;;4.70;97.39;97992.81;5025886;28;20136;-70
2020/12/04 00:09:01;;;;;;;17.17;9.30;;;;;;;4.64;97.58;97992.47;5023128;28;20486;-70
2020/12/04 00:11:33;;;;;;;14.88;8.98;;;;;;;4.62;97.91;97984.66;5020878;28;20126;-69
2020/12/04 00:13:58;;;;;;;16.80;8.65;;;;;;;4.64;97.50;97965.91;5024610;28;20025;-70
2020/12/04 00:16:23;;;;;;;18.83;9.43;;;;;;;4.65;97.83;97979.09;5020259;28;20060;-70
2020/12/04 00:18:49;;;;;;;18.67;9.93;;;;;;;4.68;97.31;97964.72;5027010;28;20149;-70
2020/12/04 00:21:14;;;;;;;17.63;8.77;;;;;;;4.68;97.08;97970.88;5028077;28;20047;-70
2020/12/04 00:23:40;;;;;;;16.02;9.23;;;;;;;4.63;97.36;97967.72;5027572;28;20133;-69
2020/12/04 00:26:05;;;;;;;16.27;9.30;;;;;;;4.66;97.53;97959.53;5028616;28;20047;-70
2020/12/04 00:28:31;;;;;;;18.67;9.52;;;;;;;4.66;97.98;97948.91;5029051;28;20037;-69
2020/12/04 00:30:56;;;;;;;18.67;10.00;;;;;;;4.59;98.47;97945.06;5024563;28;20030;-69
2020/12/04 00:33:21;;;;;;;15.35;8.90;;;;;;;4.59;98.76;97941.56;5026378;28;20484;-70
2020/12/04 00:35:47;;;;;;;18.73;8.90;;;;;;;4.60;98.40;97932.63;5024849;28;20053;-69
2020/12/04 00:38:12;;;;;;;16.48;8.50;;;;;;;4.65;98.62;97933.91;5027340;28;20041;-69
2020/12/04 00:40:38;;;;;;;15.32;9.20;;;;;;;4.62;98.52;97928.03;5022839;28;20029;-69
2020/12/04 00:43:03;;;;;;;14.68;9.77;;;;;;;4.55;99.23;97909.13;5010277;28;20558;-69
2020/12/04 00:45:28;;;;;;;18.42;9.93;;;;;;;4.66;98.81;97910.88;5023638;28;20037;-70
2020/12/04 00:47:55;;;;;;;15.68;9.00;;;;;;;4.65;99.17;97904.69;5027065;28;20164;-70
2020/12/04 00:50:20;;;;;;;13.60;8.48;;;;;;;4.68;98.73;97903.63;5020892;28;20180;-69
2020/12/04 00:52:46;;;;;;;20.65;8.52;;;;;;;4.66;98.50;97900.22;5021206;28;20491;-70
2020/12/04 00:55:11;;;;;;;16.08;8.50;;;;;;;4.66;98.39;97909.06;5025650;28;20369;-69
2020/12/04 00:57:37;;;;;;;16.98;7.82;;;;;;;4.68;97.91;97914.25;5025670;28;20532;-70
2020/12/04 01:00:04;;;;;;;15.32;8.63;;;;;;;4.69;97.69;97895.50;5027592;28;20109;-69
2020/12/04 01:02:30;;;;;;;15.73;7.63;;;;;;;4.70;98.07;97891.88;5027319;28;20088;-69
2020/12/04 01:04:55;;;;;;;16.27;8.10;;;;;;;4.71;98.13;97898.03;5020915;28;20455;-69
2020/12/04 01:07:21;;;;;;;13.57;7.15;;;;;;;4.75;97.94;97889.66;5019119;28;20187;-69
2020/12/04 01:09:46;;;;;;;16.45;7.57;;;;;;;4.74;97.62;97898.63;5026352;28;20034;-70
2020/12/04 01:12:13;;;;;;;13.77;8.02;;;;;;;4.75;97.80;97883.53;5007284;28;20029;-70
2020/12/04 01:14:38;;;;;;;14.73;7.90;;;;;;;4.78;97.47;97884.09;5027987;28;20037;-70
2020/12/04 01:17:04;;;;;;;15.52;8.07;;;;;;;4.75;97.63;97886.19;5026072;28;20052;-69
2020/12/04 01:19:29;;;;;;;15.48;8.07;;;;;;;4.73;96.90;97880.16;5022298;28;20098;-69
2020/12/04 01:21:55;;;;;;;18.98;7.85;;;;;;;4.81;96.97;97870.53;5022372;28;20041;-69
2020/12/04 01:24:20;;;;;;;12.60;7.43;;;;;;;4.72;96.46;97870.50;5019800;28;20041;-69
2020/12/04 01:26:45;;;;;;;14.63;7.88;;;;;;;4.75;96.45;97863.09;5025825;28;20041;-69
2020/12/04 01:29:11;;;;;;;12.65;6.82;;;;;;;4.73;96.89;97861.56;5021815;28;20037;-69
2020/12/04 01:31:36;;;;;;;14.05;7.25;;;;;;;4.77;96.45;97849.69;5019390;28;20022;-69
2020/12/04 01:34:02;;;;;;;12.27;7.28;;;;;;;4.77;96.46;97847.88;5017152;28;20165;-69
2020/12/04 01:36:28;;;;;;;12.98;7.40;;;;;;;4.79;96.54;97842.44;5018216;28;20041;-70
2020/12/04 01:38:53;;;;;;;12.07;6.68;;;;;;;4.76;96.07;97832.91;5022801;28;20029;-70
2020/12/04 01:41:19;;;;;;;11.50;6.88;;;;;;;4.76;95.96;97846.19;5024045;28;20116;-69
2020/12/04 01:43:44;;;;;;;12.00;6.25;;;;;;;4.82;95.75;97824.38;5026458;28;20496;-69
2020/12/04 01:46:11;;;;;;;12.27;6.65;;;;;;;4.80;95.68;97829.03;5025738;28;20610;-70
2020/12/04 01:48:37;;;;;;;15.50;7.15;;;;;;;4.73;96.18;97817.22;5017101;28;20037;-70
2020/12/04 01:51:02;;;;;;;14.50;7.47;;;;;;;4.71;95.84;97818.31;5024817;28;20492;-69
2020/12/04 01:53:28;;;;;;;12.02;6.38;;;;;;;4.78;95.41;97814.16;5019719;28;20515;-70
2020/12/04 01:55:54;;;;;;;11.00;5.97;;;;;;;4.76;95.80;97811.63;5019563;28;20041;-69
2020/12/04 01:58:20;;;;;;;15.20;6.60;;;;;;;4.79;94.98;97799.91;5018475;28;20025;-69
2020/12/04 02:00:45;;;;;;;12.32;7.38;;;;;;;4.82;95.09;97816.41;5019251;28;20084;-69
2020/12/04 02:03:12;;;;;;;11.38;6.57;;;;;;;4.82;94.75;97821.72;5017037;28;20033;-70
2020/12/04 02:05:45;;;;;;;12.05;6.60;;;;;;;4.82;94.97;97800.47;5017959;28;20078;-70
2020/12/04 02:08:13;;;;;;;;;;;;;;;4.78;95.27;97799.06;5020780;28;20084;-69
2020/12/04 02:10:48;;;;;;;14.30;7.18;;;;;;;4.77;94.83;97791.22;5034995;28;19913;-71
2020/12/04 02:13:15;;;;;;;11.75;6.70;;;;;;;4.78;95.03;97785.78;5010232;28;20503;-69
2020/12/04 02:15:41;;;;;;;10.70;6.22;;;;;;;4.76;94.67;97782.41;5023361;28;20473;-69
2020/12/04 02:18:07;;;;;;;11.45;6.60;;;;;;;4.75;95.24;97777.25;5014418;28;20065;-69
2020/12/04 02:20:35;;;;;;;16.17;6.75;;;;;;;4.75;94.66;97756.81;5019473;28;21029;-70
2020/12/04 02:23:01;;;;;;;14.00;6.80;;;;;;;4.76;94.45;97763.81;5022368;28;20110;-69
2020/12/04 02:25:27;;;;;;;11.73;6.57;;;;;;;4.75;95.17;97767.44;5023630;28;20687;-69
2020/12/04 02:27:52;;;;;;;13.57;7.18;;;;;;;4.78;94.04;97759.22;5024933;28;20057;-71
2020/12/04 02:30:24;;;;;;;12.65;6.60;;;;;;;4.80;94.25;97764.41;5025432;28;20044;-69
2020/12/04 02:32:49;;;;;;;12.18;6.55;;;;;;;4.85;93.84;97748.91;5023521;28;20038;-69
2020/12/04 02:35:14;;;;;;;11.65;6.53;;;;;;;4.85;94.13;97746.25;5024747;28;20045;-69
2020/12/04 02:37:40;;;;;;;12.57;6.57;;;;;;;4.80;93.83;97744.00;5021436;28;20024;-69
2020/12/04 02:40:05;;;;;;;14.32;7.00;;;;;;;4.80;94.20;97748.47;5022535;28;20029;-69
2020/12/04 02:42:31;;;;;;;11.07;6.65;;;;;;;4.80;94.14;97730.72;5020821;28;20391;-70
2020/12/04 02:44:56;;;;;;;11.95;6.45;;;;;;;4.74;94.25;97728.59;5023588;28;20504;-68
2020/12/04 02:47:26;;;;;;;10.00;6.05;;;;;;;4.80;93.78;97724.56;5015951;28;20038;-69
2020/12/04 02:49:52;;;;;;;11.63;6.20;;;;;;;4.78;93.95;97724.69;5021304;28;20044;-69
2020/12/04 02:52:22;;;;;;;11.18;6.63;;;;;;;4.78;94.25;97708.75;5023930;28;20037;-71
2020/12/04 02:54:47;;;;;;;10.13;6.30;;;;;;;4.72;94.46;97706.63;5004455;28;20116;-69
2020/12/04 02:57:13;;;;;;;10.38;6.40;;;;;;;4.71;94.19;97707.59;5016196;28;20451;-70
2020/12/04 02:59:38;;;;;;;9.98;6.00;;;;;;;4.73;94.33;97703.00;5018987;28;20091;-69
2020/12/04 03:02:04;;;;;;;11.82;6.15;;;;;;;4.73;94.49;97705.66;5015555;28;20029;-69
2020/12/04 03:04:29;;;;;;;11.48;5.88;;;;;;;4.72;94.23;97689.84;5012791;28;20091;-69
2020/12/04 03:06:54;;;;;;;9.25;5.75;;;;;;;4.71;94.23;97693.47;5022419;28;20033;-69
2020/12/04 03:09:20;;;;;;;9.70;5.70;;;;;;;4.72;94.59;97688.03;5039738;28;20033;-69
2020/12/04 03:11:45;;;;;;;11.73;6.63;;;;;;;4.71;94.84;97683.69;5015243;28;20037;-69
2020/12/04 03:14:11;;;;;;;10.02;6.00;;;;;;;4.65;94.69;97686.03;5020108;28;20112;-69
2020/12/04 03:16:36;;;;;;;9.63;6.32;;;;;;;4.70;94.86;97684.66;5024286;28;20307;-70
2020/12/04 03:19:01;;;;;;;11.50;6.70;;;;;;;4.69;94.70;97672.34;5024228;28;20029;-68
2020/12/04 03:21:27;;;;;;;12.30;6.20;;;;;;;4.68;94.62;97689.28;5025463;28;20500;-69
2020/12/04 03:23:52;;;;;;;10.48;5.82;;;;;;;4.69;94.54;97698.91;5020350;28;20520;-69
2020/12/04 03:26:18;;;;;;;11.13;6.38;;;;;;;4.69;94.89;97682.97;5021508;28;20088;-69
2020/12/04 03:28:43;;;;;;;11.48;6.72;;;;;;;4.75;94.54;97671.81;5024446;28;20040;-69
2020/12/04 03:31:08;;;;;;;10.35;6.22;;;;;;;4.71;94.99;97686.34;5019804;28;20471;-69
2020/12/04 03:33:34;;;;;;;8.93;6.35;;;;;;;4.69;94.47;97677.66;5009382;28;20392;-69
2020/12/04 03:35:59;;;;;;;13.00;6.97;;;;;;;4.76;94.46;97697.41;5029819;28;20037;-69
2020/12/04 03:38:25;;;;;;;9.25;5.53;;;;;;;4.77;94.69;97695.59;5030461;28;20041;-69
2020/12/04 03:40:50;;;;;;;8.60;5.50;;;;;;;4.78;94.23;97695.47;5031188;28;20043;-70
2020/12/04 03:43:16;;;;;;;14.43;5.68;;;;;;;4.76;94.58;97678.81;5029150;28;20452;-71
2020/12/04 03:45:41;;;;;;;13.00;5.75;;;;;;;4.80;93.68;97695.31;5029169;28;20021;-70
2020/12/04 03:48:06;;;;;;;9.93;5.82;;;;;;;4.81;94.17;97675.75;5030314;28;20041;-70
2020/12/04 03:50:32;;;;;;;10.30;5.70;;;;;;;4.80;94.58;97682.03;5025003;28;20029;-70
2020/12/04 03:52:57;;;;;;;9.20;5.50;;;;;;;4.85;94.20;97685.13;5009900;28;20079;-69
2020/12/04 03:55:23;;;;;;;8.80;5.65;;;;;;;4.86;94.00;97682.34;5028337;28;20061;-69
2020/12/04 03:57:48;;;;;;;10.98;5.72;;;;;;;4.87;94.32;97681.38;5027238;28;20415;-69
2020/12/04 04:00:13;;;;;;;9.88;5.85;;;;;;;4.89;94.14;97668.75;5019981;28;20053;-69
2020/12/04 04:02:39;;;;;;;8.30;4.90;;;;;;;4.89;93.86;97671.41;5018486;28;20057;-70
2020/12/04 04:05:05;;;;;;;9.60;5.68;;;;;;;4.95;93.78;97682.47;5023606;28;20029;-69
2020/12/04 04:07:30;;;;;;;8.38;4.90;;;;;;;4.89;94.06;97674.06;5024227;28;20265;-69
2020/12/04 04:09:55;;;;;;;10.57;5.00;;;;;;;4.92;94.11;97672.13;5021371;28;20042;-69
2020/12/04 04:12:21;;;;;;;10.63;5.43;;;;;;;4.91;93.90;97681.06;5017696;28;20037;-69
2020/12/04 04:14:46;;;;;;;8.27;4.63;;;;;;;4.95;93.66;97671.84;5025059;28;20503;-69
2020/12/04 04:17:11;;;;;;;7.22;4.57;;;;;;;5.00;93.55;97677.59;5019720;28;20076;-69
2020/12/04 04:19:37;;;;;;;11.60;5.38;;;;;;;4.97;93.76;97676.06;5018973;28;20044;-69
2020/12/04 04:22:02;;;;;;;6.93;4.75;;;;;;;5.01;93.63;97681.91;5022355;28;20041;-70
2020/12/04 04:24:28;;;;;;;8.70;5.07;;;;;;;4.98;94.20;97683.06;5027447;28;20059;-69
2020/12/04 04:26:53;;;;;;;9.27;4.85;;;;;;;5.00;93.82;97685.59;5022303;28;20038;-70
2020/12/04 04:29:18;;;;;;;7.68;4.95;;;;;;;5.07;93.86;97678.72;5027195;28;20415;-69
2020/12/04 04:31:44;;;;;;;9.55;4.75;;;;;;;5.01;94.49;97673.94;5022814;28;20048;-69
2020/12/04 04:34:09;;;;;;;8.65;4.82;;;;;;;5.06;94.62;97691.16;5028886;28;20126;-69
2020/12/04 04:36:35;;;;;;;8.30;5.35;;;;;;;5.09;93.97;97695.38;5028533;28;20033;-69
2020/12/04 04:39:00;;;;;;;9.85;5.03;;;;;;;5.01;94.24;97682.75;5026356;28;20508;-69
2020/12/04 04:41:26;;;;;;;10.13;4.97;;;;;;;5.06;94.23;97693.00;5022122;28;20049;-69
2020/12/04 04:43:53;;;;;;;6.95;4.18;;;;;;;5.14;93.88;97686.00;5026935;28;20049;-72
2020/12/04 04:46:31;;;;;;;8.73;5.10;;;;;;;5.12;94.26;97690.59;5028273;28;20164;-70
2020/12/04 04:49:00;;;;;;;9.02;5.68;;;;;;;5.15;94.40;97686.84;5026082;28;20042;-69
2020/12/04 04:51:27;;;;;;;7.03;4.57;;;;;;;5.16;94.65;97692.03;5024337;28;20041;-71
2020/12/04 04:53:56;;;;;;;8.02;4.78;;;;;;;5.18;94.24;97679.44;5024993;28;20033;-69
2020/12/04 04:56:23;;;;;;;8.95;4.70;;;;;;;5.17;94.32;97682.22;5024532;28;20116;-69
2020/12/04 04:58:48;;;;;;;6.78;4.20;;;;;;;5.25;94.44;97687.69;5016958;28;20041;-69
2020/12/04 05:01:14;;;;;;;7.22;4.20;;;;;;;5.28;94.38;97690.91;5025806;28;20084;-69
2020/12/04 05:03:39;;;;;;;8.57;4.28;;;;;;;5.32;94.33;97688.81;5028961;28;20584;-69
2020/12/04 05:06:05;;;;;;;7.25;4.30;;;;;;;5.35;94.27;97680.56;5027544;28;20034;-69
2020/12/04 05:08:30;;;;;;;7.63;4.22;;;;;;;5.36;94.43;97682.25;5027648;28;20040;-69
2020/12/04 05:11:09;;;;;;;6.95;3.88;;;;;;;5.36;94.50;97679.59;5021280;28;20029;-69
2020/12/04 05:13:35;;;;;;;6.32;4.20;;;;;;;5.34;94.69;97678.88;5025487;28;20025;-69
2020/12/04 05:16:00;;;;;;;9.27;4.78;;;;;;;5.38;94.74;97690.91;5027081;28;20745;-69
2020/12/04 05:18:27;;;;;;;6.85;4.25;;;;;;;5.35;94.89;97696.50;5028536;28;20151;-70
2020/12/04 05:20:55;;;;;;;9.05;4.88;;;;;;;5.38;95.11;97685.59;5021112;28;20505;-69
2020/12/04 05:23:21;;;;;;;6.38;3.80;;;;;;;5.40;94.93;97678.31;5021511;28;20048;-70
2020/12/04 05:25:49;;;;;;;13.77;4.53;;;;;;;5.41;94.74;97690.63;5022360;28;20038;-69
2020/12/04 05:28:16;;;;;;;6.22;4.13;;;;;;;5.41;94.94;97689.78;5023706;28;20129;-70
2020/12/04 05:30:44;;;;;;;5.68;3.60;;;;;;;5.44;94.75;97690.34;5022236;28;20045;-70
2020/12/04 05:33:11;;;;;;;7.70;4.07;;;;;;;5.47;94.77;97684.75;5026643;28;20029;-69
2020/12/04 05:35:37;;;;;;;7.25;3.75;;;;;;;5.43;94.96;97701.94;5024953;28;20135;-69
2020/12/04 05:38:16;;;;;;;6.65;3.78;;;;;;;5.44;94.92;97702.78;5026192;28;20026;-69
2020/12/04 05:41:07;;;;;;;7.32;4.13;;;;;;;5.52;94.70;97698.47;5021697;28;20034;-69
2020/12/04 05:43:35;;;;;;;8.10;4.00;;;;;;;5.47;94.72;97711.34;5022877;28;20506;-69
2020/12/04 05:46:24;;;;;;;7.00;3.90;;;;;;;5.47;95.14;97698.06;5023365;28;20022;-69
2020/12/04 05:49:08;;;;;;;6.43;3.65;;;;;;;5.47;94.83;97698.06;5025350;28;20052;-69
2020/12/04 05:51:36;;;;;;;6.13;3.55;;;;;;;5.50;94.57;97700.41;5021443;28;20452;-69
2020/12/04 05:54:04;;;;;;;5.93;3.33;;;;;;;5.48;94.96;97702.41;5023340;28;20029;-69
2020/12/04 05:56:34;;;;;;;5.20;3.47;;;;;;;5.52;94.79;97705.59;5007671;28;20037;-69
2020/12/04 05:59:09;;;;;;;5.15;3.17;;;;;;;5.52;94.34;97706.44;5016007;28;20537;-69
2020/12/04 06:01:34;;;;;;;4.90;3.13;;;;;;;5.50;94.74;97724.34;5021679;28;20056;-70
2020/12/04 06:04:00;;;;;;;6.97;3.63;;;;;;;5.51;94.75;97717.22;5024185;28;20507;-69
2020/12/04 06:06:28;;;;;;;7.53;4.07;;;;;;;5.56;94.35;97721.13;5020428;28;20094;-69
2020/12/04 06:08:56;;;;;;;6.80;3.20;;;;;;;5.55;94.55;97726.63;5013688;28;20046;-69
2020/12/04 06:11:23;;;;;;;5.43;3.13;;;;;;;5.55;94.70;97724.81;5019366;28;20037;-69
2020/12/04 06:13:50;;;;;;;4.50;2.92;;;;;;;5.51;94.95;97733.19;5013687;28;20514;-69
2020/12/04 06:16:16;;;;;;;6.20;3.30;;;;;;;5.56;95.00;97734.44;5024390;28;20043;-69
2020/12/04 06:18:42;;;;;;;5.60;3.10;;;;;;;5.60;94.58;97732.34;5020646;28;20133;-69
2020/12/04 06:21:08;;;;;;;8.07;3.42;;;;;;;5.61;94.58;97731.38;5022668;28;20091;-69
2020/12/04 06:23:33;;;;;;;5.97;3.38;;;;;;;5.64;94.33;97723.09;5023677;28;20037;-69
2020/12/04 06:26:02;;;;;;;6.93;3.80;;;;;;;5.60;94.53;97721.72;5019173;28;20033;-69
2020/12/04 06:28:38;;;;;;;5.78;3.60;;;;;;;5.61;94.63;97728.72;5025092;28;20045;-69
2020/12/04 06:31:14;;;;;;;6.95;3.63;;;;;;;5.60;95.06;97725.22;5025567;28;20041;-70
2020/12/04 06:33:42;;;;;;;4.75;3.28;;;;;;;5.62;94.65;97730.38;5012223;28;20488;-69
2020/12/04 06:36:10;;;;;;;5.43;3.20;;;;;;;5.56;94.93;97731.78;5020964;28;20411;-69
2020/12/04 06:38:41;;;;;;;5.97;3.40;;;;;;;5.63;94.76;97732.91;5018813;28;20527;-69
2020/12/04 06:41:26;;;;;;;11.98;6.70;;;;;;;5.56;95.35;97752.22;5021036;28;20048;-69
2020/12/04 06:43:54;;;;;;;6.50;3.95;;;;;;;5.55;95.62;97756.72;5015048;28;20053;-69
2020/12/04 06:46:46;;;;;;;6.22;3.78;;;;;;;5.63;95.30;97764.81;5023441;28;20499;-68
2020/12/04 06:52:18;;;;;;;9.23;5.43;;;;;;;5.67;95.59;97766.25;5014026;28;20080;-69
2020/12/04 06:54:48;;;;;;;5.78;3.92;;;;;;;5.74;95.18;97777.13;5014988;28;20531;-70
2020/12/04 06:57:18;;;;;;;5.63;3.60;;;;;;;5.75;95.16;97762.00;5022072;28;20033;-69
2020/12/04 06:59:44;;;;;;;5.45;3.30;;;;;;;5.79;94.95;97760.78;5013164;28;20051;-69
2020/12/04 07:02:12;;;;;;;5.32;3.22;;;;;;;5.81;95.37;97772.09;5023133;28;20045;-69
2020/12/04 07:04:40;;;;;;;5.28;3.15;;;;;;;5.84;95.44;97767.34;5014375;28;20093;-69
2020/12/04 07:07:13;;;;;;;4.57;3.13;;;;;;;5.75;95.97;97775.31;5025111;28;20033;-69
2020/12/04 07:09:50;;;;;;;8.05;3.67;;;;;;;5.85;95.59;97776.19;5027186;28;20064;-69
2020/12/04 07:12:15;;;;;;;5.97;3.53;;;;;;;5.79;96.14;97784.72;5020790;28;20033;-69
2020/12/04 07:14:42;;;;;;;7.10;3.85;;;;;;;5.91;95.58;97796.94;5027349;28;20087;-69
2020/12/04 07:17:07;;;;;;;6.00;3.00;;;;;;;5.90;95.82;97805.91;5029874;28;20089;-69
2020/12/04 07:19:33;;;;;;;5.45;3.45;;;;;;;6.01;95.18;97808.41;5022499;28;20599;-69
2020/12/04 07:21:58;;;;;;;5.53;2.95;;;;;;;5.95;95.76;97803.66;5025179;28;20042;-69
2020/12/04 07:24:23;;;;;;;6.53;3.28;;;;;;;5.95;95.95;97812.47;5024196;28;20398;-69
2020/12/04 07:26:55;;;;;;;7.00;3.60;;;;;;;5.95;96.28;97816.97;5029058;28;20095;-69
2020/12/04 07:29:21;;;;;;;4.82;3.22;;;;;;;6.02;96.06;97823.41;5017770;28;20036;-68
2020/12/04 07:31:48;;;;;;;5.75;3.20;;;;;;;5.98;96.47;97833.50;5026603;28;20080;-69
2020/12/04 07:34:19;;;;;;;5.78;3.25;;;;;;;5.97;96.70;97834.47;5024423;28;20107;-69
2020/12/04 07:36:54;;;;;;;7.20;3.30;;;;;;;6.01;96.92;97851.84;5018082;28;20511;-71
2020/12/04 07:39:34;;;;;;;10.00;4.95;;;;;;;6.09;96.56;97843.16;5041772;28;20500;-68
2020/12/04 07:42:01;;;;;;;7.35;4.07;;;;;;;6.14;96.46;97843.59;5025999;28;20034;-68
2020/12/04 07:44:53;;;;;;;40.40;15.10;;;;;;;6.12;96.86;97850.84;5022698;28;20041;-69
2020/12/04 07:47:19;;;;;;;28.88;11.32;;;;;;;6.19;96.73;97865.28;5013232;28;20416;-69
2020/12/04 07:49:45;;;;;;;11.52;5.07;;;;;;;6.19;96.68;97867.97;5025298;28;20046;-68
2020/12/04 07:52:13;;;;;;;5.93;3.80;;;;;;;6.17;96.89;97879.75;5020727;28;20095;-69
2020/12/04 07:54:39;;;;;;;10.13;4.53;;;;;;;6.21;96.62;97871.31;5023903;28;20053;-68
2020/12/04 07:57:05;;;;;;;6.88;3.75;;;;;;;6.20;97.04;97874.13;5021351;28;20034;-68
2020/12/04 07:59:32;;;;;;;7.15;3.92;;;;;;;6.22;97.12;97883.66;5022903;28;20081;-68
2020/12/04 08:02:03;;;;;;;7.38;3.47;;;;;;;6.22;97.15;97875.69;5022425;28;20040;-68
2020/12/04 08:04:30;;;;;;;6.72;3.72;;;;;;;6.19;97.80;97878.59;5022108;28;20377;-69
2020/12/04 08:07:29;;;;;;;5.68;3.03;;;;;;;6.26;97.19;97885.06;5023804;28;20045;-68
2020/12/04 08:09:54;;;;;;;6.30;3.60;;;;;;;6.26;97.71;97874.41;5002122;28;20132;-68
2020/12/04 08:12:27;;;;;;;31.33;16.48;;;;;;;6.29;97.67;97879.47;5023526;28;20710;-68
2020/12/04 08:14:55;;;;;;;;;;;;;;;6.32;97.82;97894.31;5021786;28;20041;-69
2020/12/04 08:17:23;;;;;;;32.65;21.70;;;;;;;6.36;98.07;97891.22;5026905;28;20021;-68
2020/12/04 08:19:49;;;;;;;25.88;17.15;;;;;;;6.37;98.39;97887.56;5019956;28;20063;-69
2020/12/04 08:22:14;;;;;;;26.98;20.38;;;;;;;6.39;98.38;97890.94;5026624;28;20424;-68
2020/12/04 08:24:50;;;;;;;14.18;10.75;;;;;;;6.39;98.55;97888.28;5022285;28;20072;-68
2020/12/04 08:27:17;;;;;;;9.32;5.00;;;;;;;6.44;98.66;97896.69;5021754;28;20038;-69
2020/12/04 08:30:00;;;;;;;17.73;11.93;;;;;;;6.47;98.36;97893.75;5021066;28;20500;-68
2020/12/04 08:32:27;;;;;;;11.63;7.63;;;;;;;6.47;98.13;97909.75;5018085;28;20120;-69
2020/12/04 08:35:09;;;;;;;38.08;22.33;;;;;;;6.51;98.33;97899.63;5020226;28;20203;-68
2020/12/04 08:37:35;;;;;;;32.15;19.30;;;;;;;6.63;97.83;97897.63;5023958;28;20037;-69
2020/12/04 08:40:00;;;;;;;37.67;19.75;;;;;;;6.63;97.77;97892.31;5019112;28;20161;-68
2020/12/04 08:42:32;;;;;;;9.80;7.65;;;;;;;6.66;97.47;97889.38;5010388;28;20198;-68
2020/12/04 08:45:06;;;;;;;6.20;3.90;;;;;;;6.66;96.98;97898.22;5025057;28;20037;-69
2020/12/04 08:47:38;;;;;;;6.95;3.67;;;;;;;6.70;97.04;97886.28;5022516;28;20064;-68
2020/12/04 08:50:16;;;;;;;6.90;4.20;;;;;;;6.74;96.77;97910.81;5019612;28;20049;-69
2020/12/04 08:52:53;;;;;;;6.70;3.63;;;;;;;6.77;96.47;97905.19;5023513;28;20029;-68
2020/12/04 08:55:24;;;;;;;6.57;3.20;;;;;;;6.77;96.22;97897.19;5043142;28;20033;-69
2020/12/04 08:57:55;;;;;;;8.57;3.45;;;;;;;6.84;95.88;97904.50;5022397;28;20029;-69
2020/12/04 09:00:30;;;;;;;5.70;3.33;;;;;;;6.90;95.68;97901.25;5021693;28;20133;-68
2020/12/04 09:02:56;;;;;;;6.78;2.78;;;;;;;6.90;95.45;97905.72;5023864;28;20034;-68
2020/12/04 09:05:22;;;;;;;5.95;3.03;;;;;;;6.93;95.91;97904.59;5024737;28;20557;-69
2020/12/04 09:07:47;;;;;;;4.95;2.70;;;;;;;7.01;95.08;97910.88;5025614;28;20045;-68
2020/12/04 09:10:15;;;;;;;6.28;2.13;;;;;;;7.03;94.77;97913.41;5021519;28;20033;-69
2020/12/04 09:12:42;;;;;;;6.07;2.20;;;;;;;7.04;94.83;97917.75;5023427;28;20492;-68
2020/12/04 09:15:09;;;;;;;4.15;2.40;;;;;;;7.16;94.70;97927.28;5024259;28;20029;-68
2020/12/04 09:17:35;;;;;;;9.60;2.88;;;;;;;7.31;93.55;97929.31;5019905;28;20052;-68
2020/12/04 09:20:01;;;;;;;5.72;2.28;;;;;;;7.40;93.41;97926.75;5027719;28;20037;-69
2020/12/04 09:22:26;;;;;;;5.10;2.30;;;;;;;7.48;92.54;97932.19;5025890;28;20034;-69
2020/12/04 09:24:52;;;;;;;5.22;2.70;;;;;;;7.51;92.92;97931.91;5026925;28;20108;-68
2020/12/04 09:27:18;;;;;;;5.80;2.00;;;;;;;7.49;92.40;97949.88;5025074;28;20145;-69
2020/12/04 09:29:44;;;;;;;7.70;2.30;;;;;;;7.61;91.33;97959.38;5018214;28;20049;-69
2020/12/04 09:32:14;;;;;;;2.67;1.77;;;;;;;7.58;91.95;97971.22;5040268;28;20057;-68
2020/12/04 09:34:43;;;;;;;4.78;2.30;;;;;;;7.69;91.06;97972.84;5026794;28;20095;-68
2020/12/04 09:37:26;;;;;;;4.60;1.95;;;;;;;7.70;91.02;97966.53;5022900;28;20037;-69
2020/12/04 09:39:57;;;;;;;4.80;1.80;;;;;;;7.72;91.18;97975.19;5025089;28;20083;-69
2020/12/04 09:42:24;;;;;;;5.32;1.95;;;;;;;7.83;88.85;97985.72;5018963;28;20033;-68
2020/12/04 09:44:51;;;;;;;9.25;1.98;;;;;;;7.87;89.34;97981.75;5019179;28;20048;-68
2020/12/04 09:47:17;;;;;;;6.32;1.90;;;;;;;7.94;88.68;97998.88;5017321;28;20451;-68
2020/12/04 09:49:44;;;;;;;5.72;2.40;;;;;;;7.94;88.66;97995.34;5020738;28;20041;-69
2020/12/04 09:52:11;;;;;;;5.22;1.75;;;;;;;7.92;89.53;97990.16;5021636;28;20087;-68
2020/12/04 09:54:38;;;;;;;4.55;2.22;;;;;;;7.92;87.79;98002.66;5018958;28;20511;-68
2020/12/04 09:57:06;;;;;;;4.55;1.40;;;;;;;8.00;87.29;98008.94;5015736;28;20033;-68
2020/12/04 09:59:32;;;;;;;4.30;2.10;;;;;;;8.04;87.21;98015.66;5016100;28;20044;-68
2020/12/04 10:01:58;;;;;;;6.32;1.42;;;;;;;7.98;87.93;98016.25;5018043;28;20120;-69
2020/12/04 10:04:24;;;;;;;9.23;2.20;;;;;;;8.04;88.17;98021.00;5022833;28;20129;-69
2020/12/04 10:06:51;;;;;;;10.80;3.58;;;;;;;8.11;87.25;98022.09;5021098;28;20038;-68
2020/12/04 10:09:18;;;;;;;21.73;7.45;;;;;;;8.17;87.37;98027.84;5025261;28;20037;-69
2020/12/04 10:11:43;;;;;;;14.75;5.03;;;;;;;8.27;87.90;98015.28;5012467;28;20103;-69
2020/12/04 10:14:09;;;;;;;6.18;2.63;;;;;;;8.48;85.26;98013.19;5021041;28;20033;-69
2020/12/04 10:16:35;;;;;;;5.10;2.05;;;;;;;8.58;84.85;98030.00;5036665;28;20468;-69
2020/12/04 10:19:00;;;;;;;4.35;1.90;;;;;;;8.65;84.05;98031.06;5018133;28;20034;-69
2020/12/04 10:21:27;;;;;;;3.30;1.88;;;;;;;8.59;84.00;98023.66;5016961;28;20107;-68
2020/12/04 10:23:54;;;;;;;2.92;1.67;;;;;;;8.50;83.65;98017.41;5021132;28;20369;-69
2020/12/04 10:26:20;;;;;;;9.00;1.83;;;;;;;8.41;84.50;98012.94;5018719;28;20021;-68
2020/12/04 10:28:46;;;;;;;6.57;1.45;;;;;;;8.46;84.08;98005.31;5025234;28;20040;-69
2020/12/04 10:31:11;;;;;;;4.60;1.77;;;;;;;8.54;83.89;98015.25;5025579;28;20045;-68
2020/12/04 10:33:37;;;;;;;4.22;1.70;;;;;;;8.66;82.97;98019.38;5021357;28;20041;-69
2020/12/04 10:36:03;;;;;;;3.90;2.30;;;;;;;8.55;84.03;98021.44;5026705;28;20049;-69
2020/12/04 10:38:29;;;;;;;3.92;2.20;;;;;;;8.60;83.98;98028.00;5022909;28;20033;-69
2020/12/04 10:40:54;;;;;;;5.00;1.75;;;;;;;8.66;84.13;98031.91;5023689;28;20029;-69
2020/12/04 10:43:20;;;;;;;7.97;2.28;;;;;;;8.60;83.80;98033.34;5015139;28;20030;-69
2020/12/04 10:45:46;;;;;;;3.30;1.92;;;;;;;8.48;84.88;98030.06;5016381;28;20052;-69
2020/12/04 10:48:11;;;;;;;8.85;1.90;;;;;;;8.51;84.69;98035.13;5020338;28;20026;-69
2020/12/04 10:50:37;;;;;;;3.50;1.50;;;;;;;8.58;83.93;98034.53;5013467;28;20633;-69
2020/12/04 10:53:02;;;;;;;5.05;1.70;;;;;;;8.48;85.09;98034.56;5021945;28;20033;-69
2020/12/04 10:55:27;;;;;;;4.80;1.10;;;;;;;8.55;83.40;98043.66;5025166;28;20040;-69
2020/12/04 10:57:53;;;;;;;5.45;1.00;;;;;;;8.57;83.02;98028.34;5020958;28;20582;-69
2020/12/04 11:00:18;;;;;;;2.65;1.10;;;;;;;8.62;82.74;98034.06;5021199;28;20037;-69
2020/12/04 11:02:44;;;;;;;3.40;0.85;;;;;;;8.64;82.47;98036.59;5020508;28;20065;-69
2020/12/04 11:07:53;;;;;;;3.80;0.80;;;;;;;8.65;81.95;98032.91;5015241;28;20037;-69
2020/12/04 11:10:19;;;;;;;1.67;0.88;;;;;;;8.64;81.33;98032.06;5017539;28;20566;-69
2020/12/04 11:12:44;;;;;;;1.80;0.82;;;;;;;8.67;81.60;98034.44;5014368;28;20411;-69
2020/12/04 11:15:10;;;;;;;1.40;0.80;;;;;;;8.69;82.03;98035.13;5025448;28;20032;-69
2020/12/04 11:17:37;;;;;;;3.95;0.75;;;;;;;8.65;81.60;98036.41;5015235;28;20030;-69
2020/12/04 11:20:03;;;;;;;1.83;1.13;;;;;;;8.63;81.86;98042.91;5023123;28;20523;-69
2020/12/04 11:22:32;;;;;;;3.55;0.65;;;;;;;8.62;80.53;98042.06;5011848;28;20065;-69
2020/12/04 11:24:58;;;;;;;10.15;2.17;;;;;;;8.56;81.44;98048.03;5022269;28;20415;-69
2020/12/04 11:27:23;;;;;;;5.70;0.90;;;;;;;8.72;79.23;98050.84;5019519;28;20053;-69
2020/12/04 11:29:49;;;;;;;8.57;1.35;;;;;;;8.69;79.19;98043.16;5018880;28;20068;-69
2020/12/04 11:32:14;;;;;;;1.77;0.75;;;;;;;8.75;79.26;98047.91;5033886;28;20091;-69
2020/12/04 11:34:39;;;;;;;2.95;0.80;;;;;;;8.79;77.18;98048.41;5023177;28;20091;-69
2020/12/04 11:37:09;;;;;;;4.35;0.80;;;;;;;8.85;75.08;98054.00;5024291;28;20041;-69
2020/12/04 11:39:36;;;;;;;1.38;0.75;;;;;;;8.92;74.08;98054.22;5021466;28;20025;-69
2020/12/04 11:42:01;;;;;;;2.13;0.60;;;;;;;8.86;72.04;98066.38;5017780;28;20087;-69
2020/12/04 11:44:27;;;;;;;3.72;0.57;;;;;;;8.97;72.51;98067.13;5023220;28;20049;-69
2020/12/04 11:46:52;;;;;;;1.25;0.40;;;;;;;8.99;72.80;98060.66;5014388;28;20043;-69